Time;durP1;ratioP1;P1;durP2;ratioP2;P2;SDS_P1;SDS_P2;PMS_P1;PMS_P2;Temp;Humidity;BMP_temperature;BMP_pressure;BME280_temperature;BME280_humidity;BME280_pressure;Samples;Min_cycle;Max_cycle;Signal;HPM_P1;HPM_P2
2021/09/30 00:01:33;;;;;;;6.93;3.33;;;8.60;99.90;;;;;;5011426;28;20050;-83
2021/09/30 00:04:04;;;;;;;9.82;3.22;;;9.30;99.90;;;;;;5023854;28;20043;-84
2021/09/30 00:06:36;;;;;;;9.85;4.25;;;8.50;99.90;;;;;;5027817;28;20046;-85
2021/09/30 00:09:06;;;;;;;8.93;3.92;;;8.50;99.90;;;;;;5027895;28;20038;-85
2021/09/30 00:11:43;;;;;;;10.52;2.83;;;8.50;99.90;;;;;;5011881;28;20065;-85
2021/09/30 00:34:02;;;;;;;7.93;3.22;;;8.40;99.90;;;;;;5005859;28;20172;-85
2021/09/30 01:24:23;;;;;;;8.00;2.78;;;8.30;99.90;;;;;;4963020;28;20051;-88
2021/09/30 02:39:10;;;;;;;4.47;2.33;;;8.40;99.90;;;;;;5001539;28;20049;-88
2021/09/30 02:59:19;;;;;;;11.02;4.80;;;8.70;99.90;;;;;;5006997;28;20060;-85
2021/09/30 03:01:49;;;;;;;7.30;3.03;;;8.80;99.90;;;;;;5020670;28;20056;-87
2021/09/30 03:04:35;;;;;;;7.88;2.67;;;8.80;99.90;;;;;;5034908;28;20417;-85
2021/09/30 03:07:07;;;;;;;10.27;3.53;;;8.80;99.90;;;;;;5008712;28;20061;-85
2021/09/30 03:09:40;;;;;;;5.45;2.50;;;9.10;99.90;;;;;;4992876;28;20041;-86
2021/09/30 03:12:33;;;;;;;10.82;3.25;;;8.80;99.90;;;;;;5042799;28;20046;-87
2021/09/30 03:15:38;;;;;;;3.47;1.67;;;8.90;99.90;;;;;;5028772;28;20337;-88
2021/09/30 03:18:29;;;;;;;6.95;2.58;;;9.00;99.90;;;;;;5047501;28;20041;-86
2021/09/30 03:23:47;;;;;;;6.57;3.10;;;9.40;99.90;;;;;;5033359;28;20052;-86
2021/09/30 03:26:16;;;;;;;9.80;2.75;;;9.00;99.90;;;;;;5019301;28;20049;-86
2021/09/30 03:28:52;;;;;;;3.17;2.10;;;9.00;99.90;;;;;;5045819;28;20040;-85
2021/09/30 03:31:23;;;;;;;9.65;2.63;;;9.00;99.90;;;;;;5014363;28;20045;-87
2021/09/30 03:34:14;;;;;;;5.07;2.15;;;9.00;99.90;;;;;;5006702;28;20406;-87
2021/09/30 03:36:43;;;;;;;10.30;2.72;;;9.00;99.90;;;;;;5019184;28;20053;-85
2021/09/30 03:39:23;;;;;;;8.70;2.13;;;9.00;99.90;;;;;;5028547;28;20416;-86
2021/09/30 03:41:54;;;;;;;9.63;2.15;;;9.60;99.90;;;;;;4997810;28;20609;-88
2021/09/30 03:44:29;;;;;;;7.82;4.13;;;9.80;99.90;;;;;;5006233;28;20053;-87
2021/09/30 03:47:15;;;;;;;6.43;1.98;;;9.10;99.90;;;;;;4996764;28;20500;-86
2021/09/30 03:49:57;;;;;;;7.38;1.92;;;9.10;99.90;;;;;;5027594;28;20057;-87
2021/09/30 03:57:50;;;;;;;13.27;2.45;;;9.20;99.90;;;;;;5047611;28;20057;-87
2021/09/30 04:00:23;;;;;;;6.05;2.58;;;9.20;99.90;;;;;;5018523;28;20057;-86
2021/09/30 04:03:08;;;;;;;8.52;3.55;;;9.30;99.90;;;;;;5035756;28;20060;-88
2021/09/30 04:05:42;;;;;;;7.57;2.30;;;9.40;99.90;;;;;;5029523;28;20045;-85
2021/09/30 04:08:14;;;;;;;8.07;2.55;;;9.40;99.90;;;;;;5030154;28;20064;-89
2021/09/30 04:10:59;;;;;;;4.25;2.13;;;9.50;99.90;;;;;;4997097;28;20058;-88
2021/09/30 04:13:28;;;;;;;9.32;2.47;;;9.50;99.90;;;;;;5025734;28;20049;-87
2021/09/30 04:16:03;;;;;;;13.77;4.72;;;9.50;99.90;;;;;;5025042;28;20060;-86
2021/09/30 04:18:33;;;;;;;7.50;1.83;;;9.60;99.90;;;;;;5016220;28;20065;-84
2021/09/30 04:21:01;;;;;;;7.43;2.60;;;9.60;99.90;;;;;;5008764;28;20054;-86
2021/09/30 04:23:31;;;;;;;3.90;1.77;;;9.70;99.90;;;;;;5026909;28;20566;-85
2021/09/30 04:25:59;;;;;;;7.07;2.67;;;9.70;99.90;;;;;;5035966;28;20045;-89
2021/09/30 04:28:30;;;;;;;4.75;1.70;;;9.70;99.90;;;;;;5022404;28;20053;-89
2021/09/30 04:31:02;;;;;;;5.68;2.50;;;9.80;99.90;;;;;;5024961;28;20046;-86
2021/09/30 04:33:42;;;;;;;7.60;2.13;;;9.90;99.90;;;;;;5046803;28;20056;-86
2021/09/30 04:36:13;;;;;;;22.15;2.92;;;9.80;99.90;;;;;;5004792;28;20058;-84
2021/09/30 04:38:51;;;;;;;9.73;3.22;;;9.80;99.90;;;;;;5004736;28;20046;-85
2021/09/30 04:41:20;;;;;;;8.35;3.70;;;10.70;99.90;;;;;;5036489;28;20050;-85
2021/09/30 04:43:53;;;;;;;10.73;2.20;;;9.90;99.90;;;;;;5031521;28;20093;-85
2021/09/30 04:46:21;;;;;;;8.45;2.53;;;9.90;99.90;;;;;;5005106;28;20045;-85
2021/09/30 04:49:10;;;;;;;11.82;2.72;;;9.90;99.90;;;;;;5036211;28;20061;-89
2021/09/30 04:51:39;;;;;;;5.93;2.85;;;10.00;99.90;;;;;;4994394;28;20060;-86
2021/09/30 04:54:10;;;;;;;8.30;3.80;;;10.00;99.90;;;;;;5020529;28;20057;-87
2021/09/30 04:56:41;;;;;;;5.38;2.50;;;10.10;99.90;;;;;;5018233;28;20041;-87
2021/09/30 04:59:33;;;;;;;9.23;2.03;;;10.10;99.90;;;;;;5004591;28;20411;-86
2021/09/30 05:02:18;;;;;;;9.93;2.95;;;10.10;99.90;;;;;;5034181;28;20303;-85
2021/09/30 05:04:50;;;;;;;5.03;2.10;;;10.10;99.90;;;;;;5038164;28;20077;-87
2021/09/30 05:07:21;;;;;;;4.88;1.63;;;10.20;99.90;;;;;;5011647;28;20060;-86
2021/09/30 05:09:52;;;;;;;8.38;2.05;;;10.20;99.90;;;;;;4998497;28;20571;-88
2021/09/30 05:12:21;;;;;;;9.90;2.25;;;10.20;99.90;;;;;;4995585;28;20060;-86
2021/09/30 05:14:52;;;;;;;12.93;2.10;;;10.30;99.90;;;;;;5040272;28;20052;-87
2021/09/30 05:17:22;;;;;;;7.30;2.22;;;10.30;99.90;;;;;;5036957;28;20044;-86
2021/09/30 05:19:54;;;;;;;11.93;2.20;;;10.30;99.90;;;;;;5034875;28;20057;-87
2021/09/30 05:22:24;;;;;;;7.90;1.60;;;10.40;99.90;;;;;;5017435;28;20060;-88
2021/09/30 05:24:56;;;;;;;8.38;2.22;;;10.40;99.90;;;;;;5005408;28;20050;-87
2021/09/30 05:27:25;;;;;;;7.55;3.40;;;10.40;99.90;;;;;;5002667;28;20362;-89
2021/09/30 05:29:58;;;;;;;5.60;1.67;;;10.40;99.90;;;;;;5021952;28;20060;-87
2021/09/30 05:32:28;;;;;;;6.32;2.30;;;10.40;99.90;;;;;;5006646;28;20050;-87
2021/09/30 05:35:07;;;;;;;6.75;1.67;;;10.50;99.90;;;;;;5028090;28;20410;-88
2021/09/30 05:37:49;;;;;;;12.38;2.72;;;10.50;99.90;;;;;;5026073;28;20055;-87
2021/09/30 05:40:20;;;;;;;3.75;1.85;;;10.50;99.90;;;;;;5034116;28;20106;-88
2021/09/30 05:42:54;;;;;;;8.02;2.90;;;10.60;99.90;;;;;;5009842;28;20805;-85
2021/09/30 05:45:23;;;;;;;7.13;2.97;;;10.60;99.90;;;;;;5006778;28;20045;-86
2021/09/30 05:47:54;;;;;;;;;;;11.60;99.90;;;;;;5012276;28;20057;-88
2021/09/30 05:50:28;;;;;;;9.90;2.70;;;10.60;99.90;;;;;;5015805;28;19925;-85
2021/09/30 05:53:33;;;;;;;14.38;4.55;;;10.60;99.90;;;;;;4967115;28;20054;-87
2021/09/30 05:56:11;;;;;;;15.52;3.65;;;10.70;99.90;;;;;;5017327;28;20509;-85
2021/09/30 05:58:39;;;;;;;9.95;2.70;;;10.70;99.90;;;;;;5037049;28;20057;-86
2021/09/30 06:01:31;;;;;;;9.27;2.40;;;10.70;99.90;;;;;;4998733;28;20050;-85
2021/09/30 06:12:21;;;;;;;9.43;2.40;;;10.80;99.90;;;;;;5005852;28;20405;-87
2021/09/30 06:14:52;;;;;;;13.20;2.40;;;10.90;99.90;;;;;;4973953;28;20069;-90
2021/09/30 06:17:45;;;;;;;5.72;1.48;;;11.00;99.90;;;;;;4993652;28;20062;-89
2021/09/30 06:20:19;;;;;;;8.82;2.10;;;11.00;99.90;;;;;;4994551;28;20064;-89
2021/09/30 06:22:50;;;;;;;8.85;2.13;;;9.80;99.90;;;;;;5027036;28;20217;-88
2021/09/30 06:25:26;;;;;;;6.88;2.63;;;11.00;99.90;;;;;;4976586;28;20061;-91
2021/09/30 06:28:09;;;;;;;9.35;2.45;;;11.10;99.90;;;;;;5022397;23;20510;-87
2021/09/30 06:30:43;;;;;;;4.88;1.50;;;11.10;99.90;;;;;;4970441;28;20046;-89
2021/09/30 06:33:35;;;;;;;5.05;1.80;;;11.20;99.90;;;;;;4989729;28;20049;-86
2021/09/30 06:36:26;;;;;;;9.00;2.35;;;11.20;99.90;;;;;;5005545;28;20038;-88
2021/09/30 06:38:59;;;;;;;13.95;4.13;;;11.20;99.90;;;;;;4969096;28;20045;-87
2021/09/30 06:41:41;;;;;;;7.57;1.42;;;11.30;99.90;;;;;;4985012;28;20053;-88
2021/09/30 06:44:56;;;;;;;7.55;1.73;;;11.30;99.90;;;;;;4952240;29;20047;-85
2021/09/30 06:47:37;;;;;;;8.13;1.92;;;11.40;99.90;;;;;;4955440;29;20047;-84
2021/09/30 06:50:32;;;;;;;12.55;3.83;;;11.50;99.90;;;;;;4980390;28;20382;-84
2021/09/30 06:53:22;;;;;;;9.35;2.15;;;11.60;99.90;;;;;;4974898;28;20038;-85
2021/09/30 06:56:08;;;;;;;6.15;1.90;;;11.60;99.90;;;;;;5005895;28;20493;-84
2021/09/30 06:59:01;;;;;;;8.07;3.33;;;11.70;99.90;;;;;;5011626;28;20057;-85
2021/09/30 07:02:04;;;;;;;10.07;2.65;;;11.80;99.90;;;;;;4927584;28;20066;-85
2021/09/30 07:04:55;;;;;;;11.50;2.83;;;11.80;99.90;;;;;;4961096;28;20393;-85
2021/09/30 07:07:48;;;;;;;8.45;3.55;;;11.90;99.90;;;;;;4999594;28;20519;-85
2021/09/30 07:10:26;;;;;;;7.35;1.92;;;11.90;99.90;;;;;;4987290;28;20046;-86
2021/09/30 07:12:54;;;;;;;13.18;2.22;;;12.00;99.90;;;;;;4994506;28;20057;-85
2021/09/30 07:15:22;;;;;;;5.30;2.03;;;12.00;99.90;;;;;;5000347;28;20053;-85
2021/09/30 07:17:50;;;;;;;6.20;1.70;;;12.10;99.90;;;;;;4999205;28;20054;-86
2021/09/30 07:20:18;;;;;;;7.70;4.13;;;12.10;99.90;;;;;;4986101;28;20054;-85
2021/09/30 07:22:46;;;;;;;19.85;3.92;;;12.10;99.90;;;;;;4987144;28;20053;-86
2021/09/30 07:25:14;;;;;;;11.98;2.50;;;12.20;99.90;;;;;;4996080;28;20223;-87
2021/09/30 07:27:42;;;;;;;13.85;2.50;;;12.20;99.90;;;;;;5018970;28;20137;-88
2021/09/30 07:30:13;;;;;;;3.75;2.25;;;12.20;99.90;;;;;;4993360;28;20060;-86
2021/09/30 07:32:41;;;;;;;5.40;1.58;;;12.30;99.90;;;;;;4995194;28;20042;-87
2021/09/30 07:35:09;;;;;;;7.40;2.15;;;12.40;99.90;;;;;;5008748;28;20045;-87
2021/09/30 07:37:37;;;;;;;10.07;2.00;;;12.40;99.90;;;;;;5030742;28;20037;-88
2021/09/30 07:40:07;;;;;;;6.20;1.65;;;12.40;99.90;;;;;;5007224;28;20057;-87
2021/09/30 07:42:36;;;;;;;9.60;1.92;;;12.50;99.90;;;;;;4996843;28;20045;-87
2021/09/30 07:45:04;;;;;;;6.47;1.73;;;12.50;99.90;;;;;;5013812;28;20057;-86
2021/09/30 07:47:31;;;;;;;7.72;2.78;;;12.60;99.90;;;;;;4996105;28;20038;-86
2021/09/30 07:49:59;;;;;;;6.18;2.00;;;12.60;99.90;;;;;;5031295;28;20037;-87
2021/09/30 07:52:32;;;;;;;6.97;2.55;;;12.70;99.90;;;;;;5004191;28;20414;-86
2021/09/30 07:55:01;;;;;;;13.25;2.38;;;12.80;99.90;;;;;;4980020;28;20050;-88
2021/09/30 07:57:30;;;;;;;9.77;3.45;;;12.80;99.90;;;;;;5017000;28;20049;-87
2021/09/30 07:59:59;;;;;;;8.05;1.83;;;12.90;99.90;;;;;;4973613;28;20045;-88
2021/09/30 08:02:40;;;;;;;7.83;2.10;;;12.90;99.90;;;;;;5014120;28;20076;-86
2021/09/30 08:05:10;;;;;;;12.40;3.78;;;12.90;99.90;;;;;;4986394;28;20053;-86
2021/09/30 08:07:39;;;;;;;8.20;2.95;;;12.90;99.90;;;;;;5005565;28;20057;-87
2021/09/30 08:10:08;;;;;;;19.38;4.65;;;13.00;99.90;;;;;;5005513;28;20056;-88
2021/09/30 08:12:36;;;;;;;10.43;2.05;;;12.90;99.90;;;;;;5002978;28;20057;-90
2021/09/30 08:15:05;;;;;;;18.80;3.38;;;12.90;99.90;;;;;;4995025;28;20053;-90
2021/09/30 08:17:37;;;;;;;10.15;2.33;;;12.90;99.90;;;;;;5019032;28;20042;-89
2021/09/30 08:20:06;;;;;;;7.80;1.67;;;12.90;99.90;;;;;;4979261;28;20053;-92
2021/09/30 08:22:36;;;;;;;12.32;1.90;;;12.90;99.90;;;;;;5017303;28;20053;-87
2021/09/30 08:25:06;;;;;;;7.00;2.20;;;13.00;99.90;;;;;;5023342;28;20057;-90
2021/09/30 08:27:35;;;;;;;;;;;13.00;99.90;;;;;;5002163;28;20404;-91
2021/09/30 08:30:05;;;;;;;10.18;2.20;;;13.00;99.90;;;;;;4989159;28;19926;-88
2021/09/30 08:32:35;;;;;;;9.40;2.08;;;13.10;99.90;;;;;;4999960;28;20046;-88
2021/09/30 08:35:06;;;;;;;8.95;1.95;;;13.10;99.90;;;;;;4997884;28;20061;-89
2021/09/30 08:37:39;;;;;;;13.65;2.65;;;13.10;99.90;;;;;;5019559;28;20492;-88
2021/09/30 08:40:10;;;;;;;12.20;3.45;;;13.10;99.90;;;;;;5032130;28;20045;-90
2021/09/30 08:42:47;;;;;;;7.65;3.15;;;13.10;99.90;;;;;;5014909;28;20034;-88
2021/09/30 08:45:22;;;;;;;10.63;2.15;;;13.20;99.90;;;;;;5021311;28;20030;-89
2021/09/30 08:47:59;;;;;;;9.55;2.70;;;13.20;99.90;;;;;;4994511;28;20045;-89
2021/09/30 08:50:29;;;;;;;7.47;2.15;;;13.30;99.90;;;;;;4970086;28;20402;-86
2021/09/30 08:52:57;;;;;;;8.57;2.20;;;13.30;99.90;;;;;;5000066;28;20052;-87
2021/09/30 08:55:26;;;;;;;18.40;3.25;;;13.30;99.90;;;;;;4985535;28;20214;-85
2021/09/30 08:58:05;;;;;;;7.90;2.63;;;13.30;99.90;;;;;;5017749;28;20046;-87
2021/09/30 09:00:40;;;;;;;9.88;2.25;;;13.40;99.90;;;;;;5011353;28;20053;-86
2021/09/30 09:03:12;;;;;;;6.78;1.83;;;13.50;99.90;;;;;;5001015;28;20065;-85
2021/09/30 09:05:41;;;;;;;12.98;1.65;;;13.60;99.90;;;;;;4998244;28;20504;-86
2021/09/30 09:08:14;;;;;;;8.93;2.97;;;13.90;99.90;;;;;;5013261;28;20422;-85
2021/09/30 09:10:43;;;;;;;11.25;2.42;;;13.70;99.90;;;;;;5000511;28;20041;-87
2021/09/30 09:13:17;;;;;;;13.38;2.13;;;13.70;99.90;;;;;;5012976;28;20056;-85
2021/09/30 09:15:54;;;;;;;8.48;2.05;;;13.80;99.90;;;;;;4989522;28;20053;-85
2021/09/30 09:18:25;;;;;;;11.57;2.65;;;13.80;99.90;;;;;;5000861;28;20369;-89
2021/09/30 09:21:09;;;;;;;7.28;2.35;;;13.90;99.90;;;;;;4993107;28;20509;-87
2021/09/30 09:23:51;;;;;;;9.23;2.38;;;14.00;99.90;;;;;;4998236;28;20057;-89
2021/09/30 09:26:33;;;;;;;16.58;2.83;;;14.00;99.90;;;;;;5016505;28;20520;-84
2021/09/30 09:29:13;;;;;;;12.15;2.53;;;14.10;99.90;;;;;;4990249;28;20046;-90
2021/09/30 09:31:43;;;;;;;9.00;2.10;;;14.20;99.90;;;;;;5006787;28;20062;-87
2021/09/30 09:34:23;;;;;;;5.80;2.27;;;14.20;99.90;;;;;;5006305;28;20050;-87
2021/09/30 09:36:53;;;;;;;7.23;3.20;;;14.40;99.90;;;;;;4970214;28;20053;-84
2021/09/30 09:39:35;;;;;;;8.18;2.53;;;14.40;99.90;;;;;;5011332;28;20056;-86
2021/09/30 09:42:15;;;;;;;11.98;2.33;;;14.50;99.90;;;;;;5012451;28;20042;-86
2021/09/30 09:44:52;;;;;;;7.25;2.13;;;14.60;99.90;;;;;;4996489;28;20057;-87
2021/09/30 09:47:23;;;;;;;6.35;2.10;;;14.60;99.90;;;;;;4992610;28;20053;-87
2021/09/30 09:50:16;;;;;;;9.27;2.88;;;14.70;99.90;;;;;;4997159;28;20065;-88
2021/09/30 09:52:58;;;;;;;9.25;2.42;;;14.70;99.90;;;;;;4990941;28;20399;-86
2021/09/30 09:55:39;;;;;;;7.80;2.90;;;14.90;99.90;;;;;;4977141;28;20605;-88
2021/09/30 09:58:13;;;;;;;6.70;1.77;;;15.00;99.90;;;;;;4974467;28;20050;-87
2021/09/30 10:01:02;;;;;;;11.35;3.75;;;15.10;99.90;;;;;;4995329;28;20065;-86
2021/09/30 10:03:32;;;;;;;7.68;2.33;;;15.20;99.90;;;;;;4986220;28;20054;-88
2021/09/30 10:06:06;;;;;;;12.00;1.37;;;15.30;99.90;;;;;;4996850;28;20045;-86
2021/09/30 10:08:34;;;;;;;4.55;1.90;;;15.40;99.90;;;;;;4994061;28;20042;-86
2021/09/30 10:11:02;;;;;;;13.20;2.30;;;15.50;99.90;;;;;;4979225;28;20052;-87
2021/09/30 10:13:37;;;;;;;10.65;2.78;;;15.50;99.90;;;;;;5012909;28;20241;-87
2021/09/30 10:16:06;;;;;;;10.60;2.50;;;15.60;99.90;;;;;;4993738;28;20054;-87
2021/09/30 10:18:38;;;;;;;10.85;3.75;;;15.70;99.90;;;;;;4995657;28;20614;-90
2021/09/30 10:21:11;;;;;;;9.90;2.60;;;15.90;99.90;;;;;;4973344;28;20053;-88
2021/09/30 10:23:40;;;;;;;12.90;2.50;;;16.10;99.90;;;;;;4980449;28;20390;-88
2021/09/30 10:26:14;;;;;;;10.32;2.90;;;16.20;99.90;;;;;;5000478;28;20043;-89
2021/09/30 10:28:45;;;;;;;15.18;3.85;;;16.30;99.90;;;;;;4972325;28;20050;-90
2021/09/30 10:31:29;;;;;;;13.02;2.50;;;16.50;99.90;;;;;;4987755;28;20061;-89
2021/09/30 10:34:05;;;;;;;16.23;2.40;;;16.40;99.90;;;;;;4986673;28;20058;-88
2021/09/30 10:36:45;;;;;;;11.75;2.83;;;16.40;99.90;;;;;;4990688;28;20065;-86
2021/09/30 10:39:22;;;;;;;9.97;5.07;;;16.40;99.90;;;;;;4985950;28;20050;-88
2021/09/30 10:42:03;;;;;;;12.95;2.85;;;16.60;99.90;;;;;;4980418;28;20054;-85
2021/09/30 10:44:39;;;;;;;12.50;2.28;;;16.60;99.90;;;;;;4985622;28;20055;-89
2021/09/30 10:47:21;;;;;;;16.25;3.15;;;16.70;99.90;;;;;;4968242;28;20054;-87
2021/09/30 10:49:58;;;;;;;12.40;2.75;;;16.80;99.90;;;;;;4986353;28;20050;-87
2021/09/30 10:52:31;;;;;;;10.38;2.47;;;16.80;99.90;;;;;;4985486;28;20119;-88
2021/09/30 10:55:10;;;;;;;11.52;2.80;;;16.90;99.90;;;;;;4979626;28;20046;-88
2021/09/30 10:57:51;;;;;;;16.05;2.95;;;17.00;99.90;;;;;;4985956;28;20065;-86
2021/09/30 11:01:06;;;;;;;11.65;3.20;;;17.10;99.90;;;;;;4984198;28;20046;-87
2021/09/30 11:03:35;;;;;;;10.30;2.00;;;16.40;99.90;;;;;;4974347;28;20052;-90
2021/09/30 11:06:15;;;;;;;8.70;2.17;;;17.10;99.90;;;;;;4994305;28;20057;-87
2021/09/30 11:09:11;;;;;;;10.90;2.58;;;16.90;99.90;;;;;;4979014;28;20051;-88
2021/09/30 11:11:49;;;;;;;8.63;3.10;;;16.90;99.90;;;;;;4979106;28;20055;-90
2021/09/30 11:14:18;;;;;;;20.92;3.35;;;16.80;99.90;;;;;;4964848;28;20047;-88
2021/09/30 11:16:53;;;;;;;11.27;3.13;;;16.80;99.90;;;;;;4972970;28;20053;-89
2021/09/30 11:19:41;;;;;;;18.98;2.83;;;16.80;99.90;;;;;;4994551;28;20053;-86
2021/09/30 11:22:31;;;;;;;9.52;1.65;;;16.80;99.90;;;;;;4963403;28;20066;-90
2021/09/30 11:25:13;;;;;;;14.48;2.72;;;16.80;99.90;;;;;;4998421;28;20378;-91
2021/09/30 11:28:13;;;;;;;10.45;2.42;;;16.60;99.90;;;;;;4997949;28;20054;-91
2021/09/30 11:30:41;;;;;;;9.30;2.25;;;16.70;99.90;;;;;;4949874;28;20073;-87
2021/09/30 11:33:14;;;;;;;8.73;1.90;;;16.70;99.90;;;;;;4979842;28;20042;-90
2021/09/30 11:35:50;;;;;;;12.73;2.53;;;16.80;99.90;;;;;;4965266;28;20057;-90
2021/09/30 11:38:23;;;;;;;21.38;2.97;;;16.80;99.90;;;;;;4976394;28;20046;-88
2021/09/30 11:40:53;;;;;;;8.18;3.35;;;16.80;99.90;;;;;;4978234;28;20050;-92
2021/09/30 11:43:26;;;;;;;16.75;2.90;;;16.80;99.90;;;;;;4996185;28;20038;-90
2021/09/30 11:45:57;;;;;;;19.63;3.05;;;17.00;99.90;;;;;;4993753;28;20066;-89
2021/09/30 11:48:28;;;;;;;14.27;2.97;;;17.00;99.90;;;;;;4982099;28;20046;-89
2021/09/30 11:51:10;;;;;;;18.02;2.25;;;17.00;99.90;;;;;;4984383;28;20077;-90
2021/09/30 11:53:41;;;;;;;19.15;3.80;;;17.00;99.90;;;;;;4999614;28;20049;-86
2021/09/30 11:56:18;;;;;;;16.80;3.20;;;17.00;99.90;;;;;;4995729;28;20057;-90
2021/09/30 11:59:05;;;;;;;;;;;17.00;99.90;;;;;;4991072;28;20064;-87
2021/09/30 12:01:45;;;;;;;12.85;2.38;;;16.80;99.90;;;;;;4999361;28;19933;-89
2021/09/30 12:04:28;;;;;;;12.00;3.40;;;16.90;99.90;;;;;;4968039;28;20050;-89
2021/09/30 12:06:58;;;;;;;14.38;3.28;;;17.00;99.90;;;;;;4983709;28;20057;-88
2021/09/30 12:09:32;;;;;;;13.48;3.85;;;16.90;99.90;;;;;;4969775;28;20053;-86
2021/09/30 12:12:07;;;;;;;10.10;2.88;;;16.60;99.90;;;;;;4987776;28;20049;-89
2021/09/30 12:14:49;;;;;;;7.60;2.15;;;16.90;99.90;;;;;;4972634;28;20422;-87
2021/09/30 12:17:23;;;;;;;20.40;2.38;;;17.00;99.90;;;;;;4950216;28;20038;-89
2021/09/30 12:19:54;;;;;;;20.58;4.05;;;17.00;99.90;;;;;;4985658;28;20047;-89
2021/09/30 12:22:55;;;;;;;9.60;2.67;;;17.10;99.90;;;;;;4984018;28;20061;-89
2021/09/30 12:25:26;;;;;;;11.70;2.85;;;17.10;99.90;;;;;;4950179;28;20057;-88
2021/09/30 12:27:56;;;;;;;;;;;17.10;99.90;;;;;;4955286;28;20055;-88
2021/09/30 12:30:27;;;;;;;13.35;3.72;;;18.30;99.90;;;;;;4999775;28;19929;-86
2021/09/30 12:33:02;;;;;;;11.10;2.80;;;17.00;99.90;;;;;;4978538;28;20686;-89
2021/09/30 12:35:38;;;;;;;13.40;3.70;;;17.00;99.90;;;;;;4981043;28;20061;-86
2021/09/30 12:38:16;;;;;;;16.38;2.35;;;17.00;99.90;;;;;;4996874;28;20537;-86
2021/09/30 12:40:51;;;;;;;24.75;4.50;;;17.10;99.90;;;;;;4999447;28;20072;-85
2021/09/30 12:43:26;;;;;;;12.38;3.20;;;17.20;99.90;;;;;;4994778;28;22140;-85
2021/09/30 12:46:02;;;;;;;12.68;2.75;;;17.40;99.90;;;;;;4974772;28;20039;-85
2021/09/30 12:48:32;;;;;;;13.73;4.13;;;17.40;99.90;;;;;;4960524;28;20061;-87
2021/09/30 12:51:09;;;;;;;20.83;2.85;;;17.50;99.90;;;;;;4977990;28;20061;-86
2021/09/30 12:53:45;;;;;;;10.55;2.72;;;17.50;99.90;;;;;;4978960;28;20046;-85
2021/09/30 12:56:20;;;;;;;16.25;2.63;;;17.50;99.80;;;;;;4970244;28;20500;-87
2021/09/30 12:58:50;;;;;;;14.60;2.55;;;17.50;99.90;;;;;;4979010;28;20055;-87
2021/09/30 13:01:33;;;;;;;16.38;2.47;;;17.40;99.90;;;;;;4977729;28;20050;-86
2021/09/30 13:04:22;;;;;;;14.02;2.42;;;17.40;99.90;;;;;;4988294;28;20049;-84
2021/09/30 13:07:06;;;;;;;11.63;1.97;;;17.30;99.90;;;;;;4984673;28;20062;-90
2021/09/30 13:09:39;;;;;;;9.15;2.25;;;17.20;99.90;;;;;;4980923;28;20296;-87
2021/09/30 13:12:15;;;;;;;9.05;2.30;;;17.20;99.90;;;;;;4992508;28;20053;-88
2021/09/30 13:14:53;;;;;;;16.15;2.50;;;17.10;99.90;;;;;;4995070;28;20053;-85
2021/09/30 13:17:30;;;;;;;12.38;2.53;;;17.20;99.90;;;;;;4959682;28;20054;-87
2021/09/30 13:20:08;;;;;;;5.78;1.75;;;17.10;99.90;;;;;;4995395;28;20154;-86
2021/09/30 13:22:39;;;;;;;10.43;2.17;;;17.10;99.90;;;;;;4986764;28;20050;-86
2021/09/30 13:25:12;;;;;;;10.50;3.53;;;17.80;99.90;;;;;;5000529;28;20061;-88
2021/09/30 13:27:48;;;;;;;11.40;3.33;;;17.10;99.90;;;;;;4962291;28;20069;-88
2021/09/30 13:30:26;;;;;;;14.60;2.83;;;17.20;99.90;;;;;;5015302;28;20050;-86
2021/09/30 13:32:57;;;;;;;18.30;3.00;;;17.30;99.90;;;;;;4974419;28;20625;-88
2021/09/30 13:35:32;;;;;;;14.48;4.82;;;17.40;99.90;;;;;;4994747;28;20038;-84
2021/09/30 13:38:01;;;;;;;15.82;2.60;;;17.40;99.90;;;;;;4979645;28;20042;-86
2021/09/30 13:40:29;;;;;;;12.02;3.45;;;17.50;99.90;;;;;;4997913;28;20054;-87
2021/09/30 13:42:58;;;;;;;23.13;4.50;;;17.60;99.90;;;;;;4979431;28;20406;-86
2021/09/30 13:45:27;;;;;;;14.93;2.47;;;17.70;99.90;;;;;;5016705;28;20042;-87
2021/09/30 13:47:56;;;;;;;21.42;3.78;;;17.70;99.90;;;;;;4996990;28;20058;-88
2021/09/30 13:50:25;;;;;;;8.90;2.28;;;17.70;99.90;;;;;;4988064;28;20065;-87
2021/09/30 13:52:53;;;;;;;12.70;3.30;;;17.70;99.90;;;;;;4984079;28;20050;-86
2021/09/30 13:55:22;;;;;;;11.85;2.42;;;17.70;99.90;;;;;;5006246;28;20060;-89
2021/09/30 13:57:53;;;;;;;16.73;3.45;;;17.40;99.90;;;;;;4980044;28;20307;-88
2021/09/30 14:00:24;;;;;;;15.52;4.78;;;17.30;99.90;;;;;;4997241;28;20073;-87
2021/09/30 14:02:54;;;;;;;14.30;3.10;;;17.30;99.90;;;;;;4964362;28;20057;-88
2021/09/30 14:05:22;;;;;;;9.02;3.33;;;17.20;99.90;;;;;;5005105;28;20057;-89
2021/09/30 14:07:54;;;;;;;9.73;2.80;;;16.70;99.90;;;;;;4963792;28;20055;-90
2021/09/30 14:10:27;;;;;;;13.77;2.88;;;17.20;99.90;;;;;;4996529;28;20042;-89
2021/09/30 14:12:55;;;;;;;13.45;4.68;;;17.20;99.90;;;;;;4980746;28;20084;-89
2021/09/30 14:15:23;;;;;;;11.13;2.75;;;17.20;99.90;;;;;;4997443;28;20051;-90
2021/09/30 14:17:56;;;;;;;12.20;3.53;;;17.30;99.90;;;;;;4982490;28;20057;-91
2021/09/30 14:20:28;;;;;;;11.48;2.90;;;17.30;99.90;;;;;;4980949;28;20249;-92
2021/09/30 14:23:13;;;;;;;16.13;3.25;;;17.30;99.90;;;;;;4969889;28;20054;-92
2021/09/30 14:26:05;;;;;;;18.27;2.70;;;17.70;99.90;;;;;;5007601;28;20057;-91
2021/09/30 14:28:42;;;;;;;12.23;3.45;;;17.60;99.90;;;;;;4973416;28;20135;-91
2021/09/30 14:31:48;;;;;;;10.32;1.95;;;16.80;99.90;;;;;;5022513;28;20052;-92
2021/09/30 14:34:53;;;;;;;15.85;3.17;;;17.70;99.90;;;;;;5002419;28;20046;-91
2021/09/30 14:37:33;;;;;;;11.95;2.63;;;17.60;99.90;;;;;;4993435;28;20046;-94
2021/09/30 14:40:39;;;;;;;;;;;;;;;;;;;;;
2021/09/30 14:44:16;;;;;;;13.60;3.65;;;17.40;99.90;;;;;;5025933;28;20049;-93
2021/09/30 14:47:54;;;;;;;18.30;3.78;;;17.20;99.90;;;;;;4995404;28;20064;-92
2021/09/30 14:50:52;;;;;;;16.83;4.90;;;17.20;99.90;;;;;;5023862;28;20060;-93
2021/09/30 14:53:53;;;;;;;16.38;2.70;;;17.10;99.90;;;;;;4963603;28;20065;-93
2021/09/30 14:56:54;;;;;;;12.00;3.13;;;17.20;99.90;;;;;;5005003;28;20048;-91
2021/09/30 15:03:11;;;;;;;15.55;3.60;;;17.10;99.90;;;;;;4979528;28;20045;-94
2021/09/30 15:06:32;;;;;;;20.55;4.43;;;17.10;99.90;;;;;;5002550;28;20032;-95
2021/09/30 15:09:54;;;;;;;12.85;2.58;;;17.00;99.90;;;;;;5028525;28;20058;-93
2021/09/30 15:12:53;;;;;;;8.63;2.35;;;17.10;99.90;;;;;;5009176;28;20061;-93
2021/09/30 15:15:34;;;;;;;11.70;2.75;;;16.90;99.90;;;;;;4994960;28;20056;-92
2021/09/30 15:18:27;;;;;;;16.40;4.78;;;16.90;99.90;;;;;;5009349;28;20060;-93
2021/09/30 15:25:13;;;;;;;;;;;;;;;;;;;;;
2021/09/30 15:28:06;;;;;;;13.63;3.47;;;16.20;99.90;;;;;;4985904;28;20526;-83
2021/09/30 15:32:00;;;;;;;7.72;2.42;;;16.20;99.90;;;;;;4924112;29;20056;-82
2021/09/30 15:35:23;;;;;;;17.77;2.65;;;16.90;99.90;;;;;;4875738;29;20053;-83
2021/09/30 15:38:11;;;;;;;15.15;3.17;;;16.70;99.90;;;;;;4890919;29;20065;-83
2021/09/30 15:41:02;;;;;;;15.15;3.00;;;16.70;99.90;;;;;;4888932;29;20045;-83
2021/09/30 15:43:53;;;;;;;13.15;3.30;;;16.60;99.90;;;;;;4870643;29;20064;-82
2021/09/30 15:46:48;;;;;;;6.85;2.22;;;16.60;99.90;;;;;;4884514;29;20064;-82
2021/09/30 15:49:43;;;;;;;16.05;4.53;;;16.60;99.90;;;;;;4909547;29;20060;-84
2021/09/30 15:52:17;;;;;;;;;;;16.60;99.90;;;;;;4956376;28;20070;-86
2021/09/30 15:54:58;;;;;;;19.08;3.30;;;16.60;99.90;;;;;;4991461;28;19922;-84
2021/09/30 15:57:49;;;;;;;12.80;3.15;;;16.40;99.90;;;;;;4966242;28;20062;-85
2021/09/30 16:15:08;;;;;;;16.20;3.15;;;17.00;99.90;;;;;;4873129;29;20067;-84
2021/09/30 16:18:17;;;;;;;19.23;3.78;;;16.30;99.90;;;;;;4872976;29;20059;-86
2021/09/30 16:21:10;;;;;;;34.83;4.82;;;16.30;99.90;;;;;;4924250;29;20058;-81
2021/09/30 16:23:48;;;;;;;;;;;16.30;99.90;;;;;;4938358;28;20051;-84
2021/09/30 16:26:32;;;;;;;18.45;4.20;;;18.20;99.90;;;;;;4941170;29;20062;-79
2021/09/30 16:29:02;;;;;;;12.00;2.92;;;16.30;99.90;;;;;;4915496;29;20198;-82
2021/09/30 16:32:03;;;;;;;24.27;3.55;;;16.30;99.90;;;;;;4952874;29;20062;-83
2021/09/30 16:35:20;;;;;;;23.42;3.72;;;15.60;99.90;;;;;;4953093;29;20066;-87
2021/09/30 16:38:01;;;;;;;16.25;5.03;;;16.40;99.90;;;;;;4938985;29;20043;-85
2021/09/30 16:40:51;;;;;;;12.00;2.22;;;16.30;99.90;;;;;;4958911;29;20393;-81
2021/09/30 16:43:26;;;;;;;17.50;4.05;;;16.30;99.90;;;;;;5000189;28;20073;-85
2021/09/30 16:46:19;;;;;;;21.30;4.25;;;16.30;99.90;;;;;;4976760;28;20050;-80
2021/09/30 16:48:56;;;;;;;13.95;2.42;;;16.40;99.90;;;;;;4956329;28;20050;-82
2021/09/30 16:51:35;;;;;;;16.73;3.50;;;16.20;99.90;;;;;;4991813;28;20136;-81
2021/09/30 16:54:17;;;;;;;14.98;3.45;;;16.10;99.90;;;;;;4980017;28;20060;-85
2021/09/30 16:56:47;;;;;;;15.98;3.08;;;16.00;99.90;;;;;;4997907;28;20041;-83
2021/09/30 16:59:48;;;;;;;11.60;3.15;;;16.00;99.90;;;;;;4989695;28;20046;-83
2021/09/30 17:03:12;;;;;;;13.95;2.92;;;16.00;99.90;;;;;;4978770;28;20050;-82